Keremeos, Canada
Current Conditions -  °F | °C
As of 3:00 PM on Saturday 25 Oct 2014 (Local Time) from CYYF Reporting Station
Broken Clouds Broken Clouds  
Wind Chill: 50°   Ceiling: 22000
Heat Index: 50°   Visibility: 15mi
Dew Point: 45°   Wind: 8mph
Humidity: 82%   Direction: 230°SW
Pressure: 29.5"   Gusts: NA
Location:  49.2°N, 119.82°W
Report Text: CYYF 252200Z 23007KT 15SM FEW020 SCT055TCU SCT120 BKN220 10/07 A2950 RMK CF1TCU2AC1CI2 SLP996 DENSITY ALT 1300FT
Loading
Personal Weather Stations






























Interactive Weather Map
Tropical Storm Tracking
New forecast layout! Learn more

10-Day Weather Forecast

Advertisements
Track Severe Weather on mobile